createdAt,value
2019-01-19T00:00:24.744Z,1003.72
2019-01-19T00:01:34.293Z,1003.69
2019-01-19T00:02:44.116Z,1003.73
2019-01-19T00:03:54.172Z,1003.69
2019-01-19T00:05:10.324Z,1003.66
2019-01-19T00:06:20.663Z,1003.58
2019-01-19T00:07:30.715Z,1003.59
2019-01-19T00:08:40.795Z,1003.58
2019-01-19T00:09:50.920Z,1003.6
2019-01-19T00:11:01.211Z,1003.63
2019-01-19T00:12:11.635Z,1003.57
2019-01-19T00:13:21.422Z,1003.61
2019-01-19T00:14:31.491Z,1003.59
2019-01-19T00:15:41.577Z,1003.56
2019-01-19T00:16:51.689Z,1003.51
2019-01-19T00:18:01.841Z,1003.49
2019-01-19T00:19:11.894Z,1003.52
2019-01-19T00:20:21.685Z,1003.53
2019-01-19T00:21:31.756Z,1003.51
2019-01-19T00:22:41.823Z,1003.5
2019-01-19T00:23:51.632Z,1003.44
2019-01-19T00:25:01.708Z,1003.43
2019-01-19T00:26:11.881Z,1003.36
2019-01-19T00:27:21.960Z,1003.36
2019-01-19T00:28:31.796Z,1003.36
2019-01-19T00:29:41.615Z,1003.37
2019-01-19T00:30:51.934Z,1003.31
2019-01-19T00:32:02.061Z,1003.36
2019-01-19T00:33:12.131Z,1003.35
2019-01-19T00:34:22.237Z,1003.34
2019-01-19T00:35:39.297Z,1003.36
2019-01-19T00:36:49.422Z,1003.34
2019-01-19T00:37:59.494Z,1003.36
2019-01-19T00:39:09.563Z,1003.37
2019-01-19T00:40:19.686Z,1003.34
2019-01-19T00:41:29.971Z,1003.37
2019-01-19T00:42:40.248Z,1003.33
2019-01-19T00:43:50.341Z,1003.33
2019-01-19T00:45:00.173Z,1003.31
2019-01-19T00:46:10.247Z,1003.32
2019-01-19T00:47:20.093Z,1003.29
2019-01-19T00:48:30.158Z,1003.35
2019-01-19T00:49:40.210Z,1003.37
2019-01-19T00:50:50.719Z,1003.41
2019-01-19T00:52:01.102Z,1003.44
2019-01-19T00:53:11.145Z,1003.49
2019-01-19T00:54:21.206Z,1003.47
2019-01-19T00:55:31.241Z,1003.55
2019-01-19T00:56:41.086Z,1003.53
2019-01-19T00:57:50.911Z,1003.51
2019-01-19T00:59:03.635Z,1003.42
2019-01-19T01:00:13.913Z,1003.44
2019-01-19T01:01:24.370Z,1003.39
2019-01-19T01:02:34.443Z,1003.4
2019-01-19T01:03:44.513Z,1003.43
2019-01-19T01:04:54.592Z,1003.42
2019-01-19T01:06:04.943Z,1003.43
2019-01-19T01:07:15.005Z,1003.46
2019-01-19T01:08:25.114Z,1003.49
2019-01-19T01:09:35.237Z,1003.5
2019-01-19T01:10:45.053Z,1003.52
2019-01-19T01:11:55.127Z,1003.52
2019-01-19T01:13:05.194Z,1003.5
2019-01-19T01:14:15.492Z,1003.51
2019-01-19T01:15:25.567Z,1003.52
2019-01-19T01:16:35.635Z,1003.59
2019-01-19T01:17:45.690Z,1003.59
2019-01-19T01:18:55.753Z,1003.61
2019-01-19T01:20:05.809Z,1003.58
2019-01-19T01:21:16.207Z,1003.52
2019-01-19T01:22:26.274Z,1003.51
2019-01-19T01:23:36.337Z,1003.47
2019-01-19T01:24:46.386Z,1003.48
2019-01-19T01:25:56.431Z,1003.47
2019-01-19T01:27:06.219Z,1003.44
2019-01-19T01:28:16.311Z,1003.46
2019-01-19T01:29:26.370Z,1003.41
2019-01-19T01:30:36.430Z,1003.39
2019-01-19T01:31:46.546Z,1003.43
2019-01-19T01:32:56.688Z,1003.46
2019-01-19T01:34:06.777Z,1003.43
2019-01-19T01:35:16.825Z,1003.5
2019-01-19T01:36:33.252Z,1003.48
2019-01-19T01:37:43.295Z,1003.46
2019-01-19T01:38:53.536Z,1003.53
2019-01-19T01:40:04.371Z,1003.42
2019-01-19T01:41:14.431Z,1003.45
2019-01-19T01:42:24.257Z,1003.46
2019-01-19T01:43:34.311Z,1003.42
2019-01-19T01:44:44.368Z,1003.39
2019-01-19T01:45:54.650Z,1003.3
2019-01-19T01:47:05.599Z,1003.3
2019-01-19T01:48:15.413Z,1003.27
2019-01-19T01:49:25.533Z,1003.34
2019-01-19T01:50:35.585Z,1003.38
2019-01-19T01:51:45.632Z,1003.48
2019-01-19T01:52:55.749Z,1003.5
2019-01-19T01:54:05.814Z,1003.51
2019-01-19T01:55:15.617Z,1003.51
2019-01-19T01:56:25.715Z,1003.44
2019-01-19T01:57:35.783Z,1003.41
2019-01-19T01:58:45.869Z,1003.33
2019-01-19T01:59:55.907Z,1003.29
2019-01-19T02:01:08.754Z,1003.26
2019-01-19T02:02:18.812Z,1003.28
2019-01-19T02:03:28.886Z,1003.28
2019-01-19T02:04:39.204Z,1003.32
2019-01-19T02:05:49.273Z,1003.34
2019-01-19T02:06:59.376Z,1003.33
2019-01-19T02:08:09.186Z,1003.33
2019-01-19T02:09:19.240Z,1003.3
2019-01-19T02:10:29.291Z,1003.3
2019-01-19T02:11:39.692Z,1003.29
2019-01-19T02:12:49.763Z,1003.26
2019-01-19T02:13:59.922Z,1003.29
2019-01-19T02:15:10.233Z,1003.32
2019-01-19T02:16:20.316Z,1003.3
2019-01-19T02:17:30.375Z,1003.29
2019-01-19T02:18:40.421Z,1003.33
2019-01-19T02:19:50.838Z,1003.3
2019-01-19T02:21:01.534Z,1003.34
2019-01-19T02:22:11.596Z,1003.35
2019-01-19T02:23:21.412Z,1003.31
2019-01-19T02:24:31.462Z,1003.31
2019-01-19T02:25:41.567Z,1003.25
2019-01-19T02:26:51.399Z,1003.27
2019-01-19T02:28:01.442Z,1003.25
2019-01-19T02:29:11.742Z,1003.28
2019-01-19T02:30:21.835Z,1003.3
2019-01-19T02:31:32.274Z,1003.31
2019-01-19T02:32:42.121Z,1003.3
2019-01-19T02:33:52.229Z,1003.32
2019-01-19T02:35:02.145Z,1003.27
2019-01-19T02:36:12.645Z,1003.28
2019-01-19T02:37:22.978Z,1003.28
2019-01-19T02:38:33.211Z,1003.28
2019-01-19T02:39:43.397Z,1003.27
2019-01-19T02:40:53.465Z,1003.27
2019-01-19T02:42:03.544Z,1003.24
2019-01-19T02:43:13.656Z,1003.26
2019-01-19T02:44:23.957Z,1003.25
2019-01-19T02:45:34.026Z,1003.2
2019-01-19T02:46:44.102Z,1003.18
2019-01-19T02:47:54.395Z,1003.16
2019-01-19T02:49:04.806Z,1003.13
2019-01-19T02:50:14.981Z,1003.11
2019-01-19T02:51:25.080Z,1003.14
2019-01-19T02:52:35.116Z,1003.14
2019-01-19T02:53:45.194Z,1003.12
2019-01-19T02:54:55.262Z,1003.15
2019-01-19T02:56:06.758Z,1003.16
2019-01-19T02:57:17.394Z,1003.14
2019-01-19T02:58:27.504Z,1003.14
2019-01-19T02:59:37.658Z,1003.16
2019-01-19T03:00:47.716Z,1003.09
2019-01-19T03:01:57.798Z,1003.07
2019-01-19T03:03:09.121Z,1003.03
2019-01-19T03:34:58.514Z,1002.89
2019-01-19T03:36:08.602Z,1002.88
2019-01-19T03:37:18.670Z,1002.93
2019-01-19T03:38:28.726Z,1002.86
2019-01-19T03:39:38.868Z,1002.88
2019-01-19T03:40:49.201Z,1002.85
2019-01-19T03:41:59.514Z,1002.87
2019-01-19T03:43:09.582Z,1002.86
2019-01-19T03:44:19.630Z,1002.92
2019-01-19T03:45:29.696Z,1002.89
2019-01-19T03:46:39.762Z,1002.87
2019-01-19T03:47:49.836Z,1002.89
2019-01-19T03:48:59.627Z,1002.87
2019-01-19T03:50:09.680Z,1002.89
2019-01-19T03:51:19.737Z,1002.9
2019-01-19T03:52:29.574Z,1002.9
2019-01-19T03:53:39.619Z,1002.89
2019-01-19T03:54:49.946Z,1002.91
2019-01-19T03:55:59.799Z,1002.87
2019-01-19T03:57:09.361Z,1002.91
2019-01-19T03:58:19.663Z,1002.92
2019-01-19T03:59:29.760Z,1002.91
2019-01-19T04:00:39.917Z,1002.97
2019-01-19T04:01:50.089Z,1002.99
2019-01-19T04:02:59.916Z,1003.02
2019-01-19T04:04:09.911Z,1003.02
2019-01-19T04:05:19.713Z,1003.02
2019-01-19T04:06:29.787Z,1002.98
2019-01-19T04:07:39.850Z,1002.97
2019-01-19T04:08:49.737Z,1002.97
2019-01-19T04:09:59.543Z,1002.96
2019-01-19T04:11:09.583Z,1003.01
2019-01-19T04:12:19.732Z,1003.06
2019-01-19T04:13:29.792Z,1003.01
2019-01-19T04:14:39.871Z,1003.02
2019-01-19T04:15:49.970Z,1003.01
2019-01-19T04:17:00.077Z,1002.97
2019-01-19T04:18:10.135Z,1002.99
2019-01-19T04:19:20.191Z,1002.99
2019-01-19T04:20:29.997Z,1003
2019-01-19T04:21:40.088Z,1002.99
2019-01-19T04:22:49.651Z,1002.96
2019-01-19T04:23:59.470Z,1003.01
2019-01-19T04:25:09.264Z,1002.98
2019-01-19T04:26:19.542Z,1003
2019-01-19T04:27:29.607Z,1002.97
2019-01-19T04:28:39.680Z,1002.91
2019-01-19T04:29:49.737Z,1002.9
2019-01-19T04:30:59.962Z,1002.93
2019-01-19T04:32:10.060Z,1002.94
2019-01-19T04:33:19.959Z,1002.98
2019-01-19T04:34:29.819Z,1002.96
2019-01-19T04:35:39.629Z,1003
2019-01-19T04:36:49.703Z,1002.95
2019-01-19T04:37:59.828Z,1002.89
2019-01-19T04:39:09.881Z,1002.86
2019-01-19T04:40:19.952Z,1002.86
2019-01-19T04:41:30.008Z,1002.84
2019-01-19T04:42:40.280Z,1002.88
2019-01-19T04:43:50.372Z,1002.85
2019-01-19T04:45:00.577Z,1002.84
2019-01-19T04:46:10.631Z,1002.88
2019-01-19T04:47:20.693Z,1002.83
2019-01-19T04:48:30.750Z,1002.81
2019-01-19T04:49:40.328Z,1002.82
2019-01-19T04:50:50.394Z,1002.85
2019-01-19T04:52:01.754Z,1002.85
2019-01-19T04:53:11.827Z,1002.85
2019-01-19T04:54:21.646Z,1002.82
2019-01-19T04:55:31.700Z,1002.83
2019-01-19T04:56:41.756Z,1002.78
2019-01-19T04:57:51.809Z,1002.8
2019-01-19T04:59:01.861Z,1002.83
2019-01-19T05:00:11.917Z,1002.88
2019-01-19T05:01:23.553Z,1002.89
2019-01-19T05:02:33.667Z,1002.84
2019-01-19T05:03:43.482Z,1002.89
2019-01-19T05:04:53.544Z,1002.85
2019-01-19T05:06:11.670Z,1002.87
2019-01-19T05:07:31.090Z,1002.86
2019-01-19T05:08:41.160Z,1002.84
2019-01-19T05:09:51.250Z,1002.88
2019-01-19T05:11:02.857Z,1002.83
2019-01-19T05:12:12.962Z,1002.81
2019-01-19T05:13:22.803Z,1002.82
2019-01-19T05:14:32.353Z,1002.8
2019-01-19T05:15:42.474Z,1002.81
2019-01-19T05:16:52.289Z,1002.75
2019-01-19T05:18:03.480Z,1002.8
2019-01-19T05:19:12.832Z,1002.79
2019-01-19T05:20:22.382Z,1002.8
2019-01-19T05:21:32.180Z,1002.85
2019-01-19T05:22:42.229Z,1002.87
2019-01-19T05:23:52.299Z,1002.83
2019-01-19T05:25:02.409Z,1002.79
2019-01-19T05:26:12.489Z,1002.82
2019-01-19T05:27:22.550Z,1002.82
2019-01-19T05:28:32.834Z,1002.86
2019-01-19T05:29:42.902Z,1002.83
2019-01-19T05:30:52.967Z,1002.8
2019-01-19T05:32:04.771Z,1002.85
2019-01-19T05:33:14.594Z,1002.87
2019-01-19T05:34:24.658Z,1002.86
2019-01-19T05:35:34.713Z,1002.88
2019-01-19T05:36:44.800Z,1002.88
2019-01-19T05:37:55.101Z,1002.9
2019-01-19T05:39:07.320Z,1002.95
2019-01-19T05:40:17.621Z,1002.95
2019-01-19T05:41:27.196Z,1002.93
2019-01-19T05:42:37.102Z,1002.94
2019-01-19T05:43:47.397Z,1002.89
2019-01-19T05:44:57.193Z,1002.9
2019-01-19T05:46:07.260Z,1002.92
2019-01-19T05:47:24.414Z,1002.96
2019-01-19T05:48:34.523Z,1002.95
2019-01-19T05:49:44.890Z,1002.91
2019-01-19T05:50:54.978Z,1002.9
2019-01-19T05:52:04.530Z,1002.89
2019-01-19T05:53:14.611Z,1002.91
2019-01-19T05:54:24.475Z,1002.9
2019-01-19T05:55:34.527Z,1002.9
2019-01-19T05:56:44.538Z,1002.88
2019-01-19T05:57:54.590Z,1002.89
2019-01-19T05:59:05.484Z,1002.86
2019-01-19T06:00:15.693Z,1002.89
2019-01-19T06:01:26.228Z,1002.92
2019-01-19T06:02:36.364Z,1002.92
2019-01-19T06:03:46.176Z,1002.94
2019-01-19T06:04:56.024Z,1002.91
2019-01-19T06:06:07.729Z,1002.95
2019-01-19T06:07:17.783Z,1002.92
2019-01-19T06:08:27.634Z,1002.93
2019-01-19T06:09:37.966Z,1002.95
2019-01-19T06:10:48.012Z,1002.93
2019-01-19T06:11:57.568Z,1002.97
2019-01-19T06:13:07.616Z,1002.93
2019-01-19T06:14:17.673Z,1002.94
2019-01-19T06:15:27.466Z,1002.95
2019-01-19T06:16:37.576Z,1002.97
2019-01-19T06:17:47.673Z,1002.93
2019-01-19T06:18:57.834Z,1002.97
2019-01-19T06:20:08.071Z,1002.94
2019-01-19T06:21:17.877Z,1002.94
2019-01-19T06:22:28.840Z,1002.91
2019-01-19T06:23:38.942Z,1002.92
2019-01-19T06:24:49.122Z,1002.94
2019-01-19T06:25:59.188Z,1002.95
2019-01-19T06:27:09.233Z,1002.98
2019-01-19T06:28:19.330Z,1002.97
2019-01-19T06:29:29.541Z,1002.97
2019-01-19T06:30:40.039Z,1002.96
2019-01-19T06:31:50.657Z,1002.99
2019-01-19T06:33:02.761Z,1003.01
2019-01-19T06:34:12.844Z,1003.02
2019-01-19T06:35:22.905Z,1003
2019-01-19T06:36:32.991Z,1003.02
2019-01-19T06:37:43.061Z,1003.08
2019-01-19T06:38:53.160Z,1003.05
2019-01-19T06:40:03.917Z,1003.06
2019-01-19T06:41:13.755Z,1003.05
2019-01-19T06:42:23.809Z,1003.06
2019-01-19T06:43:33.906Z,1003.1
2019-01-19T06:44:43.515Z,1003.05
2019-01-19T06:45:54.415Z,1003.08
2019-01-19T06:47:04.671Z,1003.07
2019-01-19T06:48:14.524Z,1003.04
2019-01-19T06:49:24.317Z,1003.02
2019-01-19T06:50:34.426Z,1003.03
2019-01-19T06:51:44.772Z,1003.01
2019-01-19T06:52:54.683Z,1003.02
2019-01-19T06:54:05.002Z,1002.99
2019-01-19T06:55:15.056Z,1003.02
2019-01-19T06:56:25.130Z,1002.98
2019-01-19T06:57:34.949Z,1002.98
2019-01-19T06:58:44.802Z,1003.02
2019-01-19T06:59:54.883Z,1003.04
2019-01-19T07:01:05.299Z,1003.01
2019-01-19T07:02:15.105Z,1003
2019-01-19T07:03:25.182Z,1002.96
2019-01-19T07:04:35.350Z,1002.97
2019-01-19T07:05:45.411Z,1002.93
2019-01-19T07:07:02.309Z,1003.02
2019-01-19T07:08:12.444Z,1003.03
2019-01-19T07:09:23.300Z,1003.01
2019-01-19T07:10:33.353Z,1003
2019-01-19T07:11:43.462Z,1003.03
2019-01-19T07:12:53.550Z,1003.06
2019-01-19T07:14:04.319Z,1003.05
2019-01-19T07:15:13.881Z,1003.03
2019-01-19T07:16:23.996Z,1003.01
2019-01-19T07:17:34.122Z,1003.04
2019-01-19T07:18:44.190Z,1003.08
2019-01-19T07:19:54.245Z,1003.02
2019-01-19T07:21:04.494Z,1003.04
2019-01-19T07:22:14.529Z,1003.06
2019-01-19T07:23:24.683Z,1003.03
2019-01-19T07:24:34.762Z,1003.02
2019-01-19T07:25:45.521Z,1003.03
2019-01-19T07:26:55.980Z,1003.07
2019-01-19T07:28:06.219Z,1003.08
2019-01-19T07:29:16.265Z,1003.11
2019-01-19T07:30:26.122Z,1003.06
2019-01-19T07:31:36.171Z,1003.12
2019-01-19T07:32:46.233Z,1003.11
2019-01-19T07:33:56.608Z,1003.15
2019-01-19T07:35:06.717Z,1003.16
2019-01-19T07:36:16.780Z,1003.2
2019-01-19T07:37:26.858Z,1003.23
2019-01-19T07:38:36.927Z,1003.18
2019-01-19T07:39:46.987Z,1003.17
2019-01-19T07:40:57.043Z,1003.2
2019-01-19T07:42:06.610Z,1003.21
2019-01-19T07:43:16.665Z,1003.19
2019-01-19T07:44:26.739Z,1003.2
2019-01-19T07:45:36.796Z,1003.18
2019-01-19T07:46:46.669Z,1003.17
2019-01-19T07:48:04.660Z,1003.2
2019-01-19T07:49:14.473Z,1003.23
2019-01-19T07:50:24.591Z,1003.2
2019-01-19T07:51:34.658Z,1003.21
2019-01-19T07:52:44.955Z,1003.26
2019-01-19T07:53:54.764Z,1003.3
2019-01-19T07:55:04.845Z,1003.3
2019-01-19T07:56:14.912Z,1003.3
2019-01-19T07:57:31.156Z,1003.31
2019-01-19T07:58:41.738Z,1003.36
2019-01-19T07:59:51.802Z,1003.38
2019-01-19T08:01:02.065Z,1003.42
2019-01-19T08:02:12.278Z,1003.38
2019-01-19T08:03:22.317Z,1003.38
2019-01-19T08:04:32.138Z,1003.36
2019-01-19T08:05:42.418Z,1003.36
2019-01-19T08:06:52.476Z,1003.38
2019-01-19T08:08:03.700Z,1003.35
2019-01-19T08:09:13.766Z,1003.35
2019-01-19T08:10:23.846Z,1003.37
2019-01-19T08:11:33.898Z,1003.34
2019-01-19T08:12:43.966Z,1003.35
2019-01-19T08:13:54.117Z,1003.35
2019-01-19T08:15:03.918Z,1003.26
2019-01-19T08:16:13.984Z,1003.26
2019-01-19T08:17:24.211Z,1003.29
2019-01-19T08:18:34.297Z,1003.27
2019-01-19T08:19:44.368Z,1003.23
2019-01-19T08:20:54.432Z,1003.21
2019-01-19T08:22:04.595Z,1003.21
2019-01-19T08:23:14.754Z,1003.19
2019-01-19T08:24:24.837Z,1003.24
2019-01-19T08:25:35.139Z,1003.25
2019-01-19T08:26:44.942Z,1003.23
2019-01-19T08:27:55.010Z,1003.17
2019-01-19T08:29:06.659Z,1003.25
2019-01-19T08:30:16.781Z,1003.2
2019-01-19T08:31:26.838Z,1003.23
2019-01-19T08:32:36.969Z,1003.21
2019-01-19T08:33:47.015Z,1003.23
2019-01-19T08:34:58.679Z,1003.16
2019-01-19T08:36:08.798Z,1003.18
2019-01-19T08:37:24.372Z,1003.22
2019-01-19T08:38:35.545Z,1003.26
2019-01-19T08:39:45.670Z,1003.22
2019-01-19T08:40:56.255Z,1003.25
2019-01-19T08:42:06.459Z,1003.24
2019-01-19T08:43:16.533Z,1003.21
2019-01-19T08:44:26.626Z,1003.2
2019-01-19T08:45:36.690Z,1003.22
2019-01-19T08:46:46.492Z,1003.28
2019-01-19T08:47:56.308Z,1003.24
2019-01-19T08:49:06.411Z,1003.2
2019-01-19T08:50:16.741Z,1003.17
2019-01-19T08:51:26.859Z,1003.2
2019-01-19T08:52:36.943Z,1003.21
2019-01-19T08:53:47.010Z,1003.24
2019-01-19T08:54:57.929Z,1003.24
2019-01-19T08:56:08.285Z,1003.27
2019-01-19T08:57:18.419Z,1003.26
2019-01-19T08:58:28.248Z,1003.26
2019-01-19T08:59:38.058Z,1003.29
2019-01-19T09:00:48.222Z,1003.25
2019-01-19T09:01:58.175Z,1003.31
2019-01-19T09:03:08.070Z,1003.33
2019-01-19T09:04:17.858Z,1003.28
2019-01-19T09:05:28.139Z,1003.32
2019-01-19T09:06:38.254Z,1003.31
2019-01-19T09:07:48.348Z,1003.3
2019-01-19T09:08:58.427Z,1003.26
2019-01-19T09:10:08.825Z,1003.24
2019-01-19T09:11:18.971Z,1003.33
2019-01-19T09:12:29.132Z,1003.34
2019-01-19T09:13:39.348Z,1003.37
2019-01-19T09:14:49.425Z,1003.35
2019-01-19T09:15:59.519Z,1003.34
2019-01-19T09:17:09.582Z,1003.31
2019-01-19T09:18:19.549Z,1003.31
2019-01-19T09:19:29.724Z,1003.32
2019-01-19T09:20:40.257Z,1003.33
2019-01-19T09:21:50.329Z,1003.31
2019-01-19T09:23:00.157Z,1003.34
2019-01-19T09:24:10.236Z,1003.37
2019-01-19T09:25:20.368Z,1003.43
2019-01-19T09:26:30.440Z,1003.44
2019-01-19T09:27:40.588Z,1003.46
2019-01-19T09:28:50.708Z,1003.45
2019-01-19T09:30:02.504Z,1003.42
2019-01-19T09:31:12.303Z,1003.39
2019-01-19T09:32:22.432Z,1003.4
2019-01-19T09:33:32.280Z,1003.36
2019-01-19T09:34:42.345Z,1003.38
2019-01-19T09:35:52.415Z,1003.38
2019-01-19T09:37:02.550Z,1003.31
2019-01-19T09:38:12.379Z,1003.28
2019-01-19T09:39:22.526Z,1003.31
2019-01-19T09:40:32.806Z,1003.27
2019-01-19T09:41:42.871Z,1003.23
2019-01-19T09:44:18.832Z,1003.27
2019-01-19T09:45:28.900Z,1003.22
2019-01-19T09:46:40.359Z,1003.2
2019-01-19T09:47:50.487Z,1003.18
2019-01-19T09:49:00.563Z,1003.2
2019-01-19T09:50:10.696Z,1003.2
2019-01-19T09:51:20.750Z,1003.18
2019-01-19T09:52:30.298Z,1003.16
2019-01-19T09:53:40.417Z,1003.11
2019-01-19T09:54:50.232Z,1003.12
2019-01-19T09:56:00.375Z,1003.13
2019-01-19T09:57:10.442Z,1003.11
2019-01-19T09:58:20.313Z,1003.14
2019-01-19T09:59:30.134Z,1003.14
2019-01-19T10:00:45.465Z,1003.14
2019-01-19T10:01:56.004Z,1003.18
2019-01-19T10:03:06.148Z,1003.09
2019-01-19T10:04:16.923Z,1003.03
2019-01-19T10:05:26.981Z,1002.99
2019-01-19T10:06:37.041Z,1003.04
2019-01-19T10:07:48.961Z,1003.04
2019-01-19T10:09:11.499Z,1003.04
2019-01-19T10:10:21.609Z,1003.02
2019-01-19T10:11:31.726Z,1003.01
2019-01-19T10:12:41.596Z,1002.93
2019-01-19T10:13:51.707Z,1002.92
2019-01-19T10:15:01.791Z,1002.91
2019-01-19T10:16:11.675Z,1002.94
2019-01-19T10:17:21.756Z,1002.91
2019-01-19T10:18:31.819Z,1002.97
2019-01-19T10:19:42.003Z,1003.01
2019-01-19T10:20:53.788Z,1002.98
2019-01-19T10:22:03.882Z,1002.99
2019-01-19T10:23:13.980Z,1002.93
2019-01-19T10:24:24.071Z,1002.95
2019-01-19T10:25:34.227Z,1002.96
2019-01-19T10:26:44.417Z,1002.99
2019-01-19T10:27:54.587Z,1002.93
2019-01-19T10:29:05.114Z,1002.91
2019-01-19T10:30:15.228Z,1002.89
2019-01-19T10:31:25.521Z,1002.86
2019-01-19T10:32:35.628Z,1002.84
2019-01-19T10:33:45.766Z,1002.83
2019-01-19T10:34:55.855Z,1002.77
2019-01-19T10:36:05.967Z,1002.79
2019-01-19T10:37:16.184Z,1002.77
2019-01-19T10:38:26.261Z,1002.8
2019-01-19T10:39:36.335Z,1002.79
2019-01-19T10:40:46.401Z,1002.79
2019-01-19T10:41:56.504Z,1002.75
2019-01-19T10:43:06.384Z,1002.72
2019-01-19T10:44:16.453Z,1002.69
2019-01-19T10:45:26.290Z,1002.7
2019-01-19T10:46:36.093Z,1002.74
2019-01-19T10:47:46.210Z,1002.68
2019-01-19T10:48:57.901Z,1002.67
2019-01-19T10:50:07.746Z,1002.71
2019-01-19T10:51:17.575Z,1002.71
2019-01-19T10:52:27.656Z,1002.69
2019-01-19T10:53:37.727Z,1002.68
2019-01-19T10:54:47.811Z,1002.66
2019-01-19T10:55:57.648Z,1002.61
2019-01-19T10:57:07.539Z,1002.6
2019-01-19T10:58:17.639Z,1002.62
2019-01-19T10:59:27.724Z,1002.62
2019-01-19T11:00:37.591Z,1002.65
2019-01-19T11:01:47.666Z,1002.65
2019-01-19T11:02:57.742Z,1002.63
2019-01-19T11:04:07.787Z,1002.63
2019-01-19T11:05:17.997Z,1002.59
2019-01-19T11:06:28.074Z,1002.6
2019-01-19T11:07:38.149Z,1002.58
2019-01-19T11:08:48.209Z,1002.57
2019-01-19T11:09:58.346Z,1002.53
2019-01-19T11:11:10.839Z,1002.5
2019-01-19T11:12:21.012Z,1002.55
2019-01-19T11:13:30.831Z,1002.48
2019-01-19T11:14:41.151Z,1002.48
2019-01-19T11:15:51.274Z,1002.44
2019-01-19T11:17:01.075Z,1002.43
2019-01-19T11:18:10.910Z,1002.42
2019-01-19T11:19:20.915Z,1002.43
2019-01-19T11:20:30.726Z,1002.39
2019-01-19T11:21:40.906Z,1002.37
2019-01-19T11:22:51.311Z,1002.38
2019-01-19T11:24:02.078Z,1002.38
2019-01-19T11:25:11.649Z,1002.35
2019-01-19T11:26:21.712Z,1002.3
2019-01-19T11:27:31.511Z,1002.3
2019-01-19T11:28:41.692Z,1002.28
2019-01-19T11:29:52.841Z,1002.25
2019-01-19T11:31:03.295Z,1002.24
2019-01-19T11:32:13.372Z,1002.26
2019-01-19T11:33:23.457Z,1002.22
2019-01-19T11:34:33.546Z,1002.21
2019-01-19T11:35:43.674Z,1002.2
2019-01-19T11:36:53.242Z,1002.23
2019-01-19T11:38:03.344Z,1002.23
2019-01-19T11:39:25.467Z,1002.19
2019-01-19T11:40:35.603Z,1002.16
2019-01-19T11:41:45.687Z,1002.13
2019-01-19T11:42:55.546Z,1002.14
2019-01-19T11:44:08.509Z,1002.14
2019-01-19T11:45:18.589Z,1002.16
2019-01-19T11:46:28.692Z,1002.11
2019-01-19T11:47:38.799Z,1002.07
2019-01-19T11:48:48.891Z,1002.07
2019-01-19T11:49:58.985Z,1002.05
2019-01-19T11:51:09.152Z,1002.01
2019-01-19T11:52:19.241Z,1002.05
2019-01-19T11:53:29.103Z,1002.02
2019-01-19T11:54:39.175Z,1001.99
2019-01-19T11:55:49.287Z,1002
2019-01-19T11:56:59.616Z,1001.98
2019-01-19T11:58:10.792Z,1001.95
2019-01-19T11:59:20.632Z,1001.95
2019-01-19T12:00:30.702Z,1002
2019-01-19T12:01:40.791Z,1001.96
2019-01-19T12:02:50.625Z,1001.93
2019-01-19T12:04:01.803Z,1001.9
2019-01-19T12:05:11.876Z,1001.91
2019-01-19T12:06:22.018Z,1001.92
2019-01-19T12:07:32.106Z,1001.92
2019-01-19T12:08:42.185Z,1001.83
2019-01-19T12:09:52.378Z,1001.83
2019-01-19T12:11:02.503Z,1001.85
2019-01-19T12:12:12.303Z,1001.82
2019-01-19T12:13:22.393Z,1001.81
2019-01-19T12:14:32.452Z,1001.82
2019-01-19T12:15:42.524Z,1001.81
2019-01-19T12:16:52.637Z,1001.74
2019-01-19T12:18:03.269Z,1001.73
2019-01-19T12:19:13.923Z,1001.73
2019-01-19T12:20:24.100Z,1001.69
2019-01-19T12:21:34.163Z,1001.74
2019-01-19T12:22:43.992Z,1001.7
2019-01-19T12:23:53.580Z,1001.69
2019-01-19T12:25:03.882Z,1001.7
2019-01-19T12:26:14.023Z,1001.64
2019-01-19T12:27:24.097Z,1001.62
2019-01-19T12:28:34.210Z,1001.61
2019-01-19T12:29:43.763Z,1001.57
2019-01-19T12:30:53.314Z,1001.57
2019-01-19T12:32:03.673Z,1001.58
2019-01-19T12:33:13.736Z,1001.54
2019-01-19T12:34:23.849Z,1001.57
2019-01-19T12:35:33.956Z,1001.57
2019-01-19T12:36:44.051Z,1001.56
2019-01-19T12:37:54.126Z,1001.52
2019-01-19T12:39:04.203Z,1001.51
2019-01-19T12:40:14.316Z,1001.49
2019-01-19T12:41:24.385Z,1001.46
2019-01-19T12:42:34.453Z,1001.5
2019-01-19T12:43:44.526Z,1001.51
2019-01-19T12:44:54.612Z,1001.5
2019-01-19T12:46:05.188Z,1001.47
2019-01-19T12:47:15.357Z,1001.4
2019-01-19T12:48:25.450Z,1001.42
2019-01-19T12:49:35.585Z,1001.35
2019-01-19T12:50:46.092Z,1001.32
2019-01-19T12:51:56.149Z,1001.32
2019-01-19T12:53:06.214Z,1001.31
2019-01-19T12:54:16.522Z,1001.32
2019-01-19T12:55:26.636Z,1001.27
2019-01-19T12:56:36.468Z,1001.24
2019-01-19T12:57:46.587Z,1001.22
2019-01-19T12:58:56.745Z,1001.2
2019-01-19T13:00:07.631Z,1001.2
2019-01-19T13:01:18.112Z,1001.19
2019-01-19T13:02:27.963Z,1001.2
2019-01-19T13:03:38.092Z,1001.19
2019-01-19T13:04:48.156Z,1001.21
2019-01-19T13:05:57.951Z,1001.19
2019-01-19T13:07:08.771Z,1001.16
2019-01-19T13:08:18.826Z,1001.14
2019-01-19T13:09:35.072Z,1001.14
2019-01-19T13:10:45.192Z,1001.13
2019-01-19T13:11:55.004Z,1001.12
2019-01-19T13:13:05.082Z,1001.13
2019-01-19T13:14:15.427Z,1001.13
2019-01-19T13:15:25.293Z,1001.07
2019-01-19T13:16:35.371Z,1001.09
2019-01-19T13:17:45.250Z,1001.07
2019-01-19T13:18:55.082Z,1001.07
2019-01-19T13:20:04.885Z,1001.07
2019-01-19T13:21:14.999Z,1001.06
2019-01-19T13:22:24.816Z,1001.08
2019-01-19T13:23:34.881Z,1001.05
2019-01-19T13:24:50.541Z,1001.04
2019-01-19T13:26:00.759Z,1001.05
2019-01-19T13:27:10.927Z,1001.03
2019-01-19T13:28:21.056Z,1001.1
2019-01-19T13:29:31.137Z,1001.08
2019-01-19T13:30:41.215Z,1001.05
2019-01-19T13:31:51.397Z,1001.03
2019-01-19T13:33:03.266Z,1001.03
2019-01-19T13:34:13.363Z,1001.02
2019-01-19T13:35:23.419Z,1001.01
2019-01-19T13:36:33.278Z,1001
2019-01-19T13:37:43.405Z,1001
2019-01-19T13:38:53.497Z,1000.99
2019-01-19T13:40:03.639Z,1000.94
2019-01-19T13:41:13.463Z,1000.95
2019-01-19T13:42:23.599Z,1000.98
2019-01-19T13:43:33.659Z,1000.96
2019-01-19T13:44:43.454Z,1000.94
2019-01-19T13:45:53.512Z,1000.96
2019-01-19T13:47:03.565Z,1000.95
2019-01-19T13:48:13.394Z,1000.95
2019-01-19T13:49:23.225Z,1000.91
2019-01-19T13:50:33.281Z,1000.9
2019-01-19T13:51:43.154Z,1000.86
2019-01-19T13:52:55.713Z,1000.9
2019-01-19T13:54:06.982Z,1000.94
2019-01-19T13:55:17.169Z,1000.9
2019-01-19T13:56:27.434Z,1000.91
2019-01-19T13:57:37.561Z,1000.89
2019-01-19T13:58:47.407Z,1000.89
2019-01-19T13:59:57.490Z,1000.88
2019-01-19T14:01:07.499Z,1000.9
2019-01-19T14:02:17.574Z,1000.92
2019-01-19T14:03:27.481Z,1000.92
2019-01-19T14:04:37.537Z,1000.95
2019-01-19T14:05:47.415Z,1000.94
2019-01-19T14:06:57.503Z,1000.95
2019-01-19T14:08:07.570Z,1000.94
2019-01-19T14:09:17.627Z,1000.93
2019-01-19T14:10:27.691Z,1000.94
2019-01-19T14:11:37.821Z,1000.96
2019-01-19T14:12:47.899Z,1000.91
2019-01-19T14:13:58.038Z,1000.92
2019-01-19T14:15:08.366Z,1000.9
2019-01-19T14:16:18.424Z,1000.88
2019-01-19T14:17:28.294Z,1000.89
2019-01-19T14:18:38.205Z,1000.89
2019-01-19T14:19:48.298Z,1000.88
2019-01-19T14:20:58.384Z,1000.87
2019-01-19T14:22:08.442Z,1000.9
2019-01-19T14:23:18.243Z,1000.85
2019-01-19T14:24:28.296Z,1000.87
2019-01-19T14:25:38.451Z,1000.88
2019-01-19T14:26:48.543Z,1000.85
2019-01-19T14:27:58.355Z,1000.85
2019-01-19T14:29:08.489Z,1000.85
2019-01-19T14:30:18.320Z,1000.8
2019-01-19T14:31:28.388Z,1000.81
2019-01-19T14:32:38.466Z,1000.76
2019-01-19T14:33:48.564Z,1000.8
2019-01-19T14:34:58.681Z,1000.74
2019-01-19T14:36:08.747Z,1000.77
2019-01-19T14:37:19.274Z,1000.74
2019-01-19T14:38:29.268Z,1000.73
2019-01-19T14:39:39.348Z,1000.74
2019-01-19T14:40:49.429Z,1000.71
2019-01-19T14:41:59.535Z,1000.67
2019-01-19T14:43:09.612Z,1000.7
2019-01-19T14:44:19.692Z,1000.65
2019-01-19T14:45:29.757Z,1000.69